This is the latest recevied weather packets stored in our database for station/object VK5KJP. If no packets are shown the sender has not sent any weather packets the latest 10 day(s).
| Time | Temp. | Humidity | Pressure | Rain* | Wind** | Luminosity | Snow |
|---|---|---|---|---|---|---|---|
| 1778018752 | 12.22° C | 94% | 1025.7 hPa | 0 mm | - | - | - |
| 1778017572 | 11.67° C | 93% | 1025.6 hPa | 0 mm | - | - | - |
| 1778010352 | 13.33° C | 86% | 1025.3 hPa | 0 mm | - | - | - |
| 1778008534 | 13.33° C | 87% | 1025.2 hPa | 0 mm | - | - | - |
| 1778007352 | 13.33° C | 89% | 1025.1 hPa | 0 mm | - | - | - |
| 1778006152 | 13.33° C | 88% | 1025.1 hPa | 0 mm | - | - | - |
| 1778003152 | 13.89° C | 86% | 1025.2 hPa | 0 mm | - | - | - |
| 1778002572 | 13.89° C | 87% | 1025.3 hPa | 0 mm | - | - | - |
| 1777998352 | 13.33° C | 91% | 1025.7 hPa | 0 mm | - | - | - |
| 1777997752 | 13.33° C | 91% | 1025.8 hPa | 0 mm | - | - | - |
| 1777995353 | 13.33° C | 91% | 1025.9 hPa | 0 mm | - | - | - |
| 1777992352 | 13.33° C | 92% | 1026.2 hPa | 0 mm | - | - | - |
| 1777991734 | 13.33° C | 92% | 1026.2 hPa | 0 mm | - | - | - |
| 1777990573 | 13.33° C | 92% | 1026.1 hPa | 0 mm | - | - | - |
| 1777989352 | 13.33° C | 91% | 1026.2 hPa | 0 mm | - | - | - |
| 1777985752 | 13.89° C | 91% | 1026.7 hPa | 0 mm | - | - | - |
| 1777982752 | 14.44° C | 91% | 1026.8 hPa | 0 mm | - | - | - |
| 1777980952 | 14.44° C | 89% | 1026.8 hPa | 0 mm | - | - | - |
| 1777980325 | 14.44° C | 89% | 1026.9 hPa | 0 mm | - | - | - |
| 1777977952 | 14.44° C | 88% | 1026.9 hPa | 0 mm | - | - | - |
| 1777974352 | 15° C | 86% | 1026.8 hPa | 0 mm | - | - | - |
| 1777973772 | 15° C | 85% | 1026.6 hPa | 0 mm | - | - | - |
| 1777970151 | 16.11° C | 76% | 1026.1 hPa | 0 mm | - | - | - |
| 1777966535 | 16.11° C | 71% | 1025.6 hPa | 0 mm | - | - | - |
| 1777965951 | 16.67° C | 70% | 1025.6 hPa | 0 mm | - | - | - |
* Rain latest hour (hover to see other rain measurements)
** Current wind speed in m/s (hover to see current wind gust speed)